NLB weather

Nueva Laguna Blanca, S.A. de C.V. Airport
Palizada, Campeche, Mexico

Public forecast

Using degrees Celsius for public forecast. Weather courtesy of forecast.io.

Closest aviation weather report (METAR) to Nueva Laguna Blanca, S.A. de C.V. Airport

Report is more than 2 hours old.

Closest report is Ciudad del Carmen International Airport, 31.3 nm (57.9 km) N. Retrieved 2019/12/15 02:46 UTC (5 hours ago):

MMCE 150246Z 07004KT 7SM SKC 26/22 A2993 RMK SLP132 52013 9//

Closest aviation forecast (TAF) to Nueva Laguna Blanca, S.A. de C.V. Airport

Closest forecast is Ciudad del Carmen International Airport, 31.3 nm (57.9 km) N. Retrieved 2019/12/15 06:22 UTC (1 hour ago):

TAF MMCE 150514Z 1506/1606 06005KT 6SM HZ SKC FM151000 13010KT 4SM HZ BKN015 TEMPO 1512/1515 1SM BR BKN005 OVC010 FM151800 13012KT P6SM SCT020 FM160300 13005KT 6SM HZ SCT015